Oil Finn — OJ9326 — position and weather

sailwx.info

Track history (hours):
 
Tides and Currents Weather Stations Pressure Air Temp Water Temp Dewpoint Dewpoint Depression Visibility Wind Speed Wind Dir Waves Ship Positions

Oil Finn

Last reported at 2017-Dec-08 09:18 UTC. Time now 2017-Dec-12 14:16 UTC.
Position N 60°11' E 024°58'.

Length 20 m; draft 2 m.

Type: Tanker. MMSI: 230033790.

Date/timePositionNaut miles runAvg speedWind from/ knotsBaromVisibWave heightAir tempDewpointWater temp
2017-Dec-08 09:18N 60°11' E 024°58'1 1.9
2017-Dec-08 09:01N 60°11' E 024°58'1 1.5
2017-Dec-08 08:31N 60°10' E 024°58'0 0.5
2017-Dec-08 08:01N 60°10' E 024°57'1 2.9
2017-Dec-08 07:31N 60°09' E 024°59'0 0.9
2017-Dec-08 07:00N 60°08' E 024°58'3 5.1
2017-Dec-08 06:31N 60°11' E 024°58'  
2017-Nov-29 09:33N 60°11' E 024°58'0 0.0
2017-Nov-29 09:31N 60°11' E 024°58'3 5.0
2017-Nov-29 09:01N 60°09' E 024°58'1 1.6
2017-Nov-29 08:31N 60°09' E 024°57'0 0.0
2017-Nov-29 08:01N 60°09' E 024°57'0 0.0
2017-Nov-29 07:31N 60°09' E 024°57'1 1.5
2017-Nov-29 07:00N 60°09' E 024°58'2 3.1
2017-Nov-29 06:30N 60°11' E 024°58'  
Track history (hours):
 
Tides and Currents Weather Stations Pressure Air Temp Water Temp Dewpoint Dewpoint Depression Visibility Wind Speed Wind Dir Waves Ship Positions

Oil Finn

Last reported at 2017-Dec-08 09:18 UTC. Time now 2017-Dec-12 14:16 UTC.
Position N 60°11' E 024°58'.

Length 20 m; draft 2 m.

Type: Tanker. MMSI: 230033790.

Date/timePositionNaut miles runAvg speedWind from/ knotsBaromVisibWave heightAir tempDewpointWater temp
2017-Dec-08 09:18N 60°11' E 024°58'1 1.9
2017-Dec-08 09:01N 60°11' E 024°58'1 1.5
2017-Dec-08 08:31N 60°10' E 024°58'0 0.5
2017-Dec-08 08:01N 60°10' E 024°57'1 2.9
2017-Dec-08 07:31N 60°09' E 024°59'0 0.9
2017-Dec-08 07:00N 60°08' E 024°58'3 5.1
2017-Dec-08 06:31N 60°11' E 024°58'  
2017-Nov-29 09:33N 60°11' E 024°58'0 0.0
2017-Nov-29 09:31N 60°11' E 024°58'3 5.0
2017-Nov-29 09:01N 60°09' E 024°58'1 1.6
2017-Nov-29 08:31N 60°09' E 024°57'0 0.0
2017-Nov-29 08:01N 60°09' E 024°57'0 0.0
2017-Nov-29 07:31N 60°09' E 024°57'1 1.5
2017-Nov-29 07:00N 60°09' E 024°58'2 3.1
2017-Nov-29 06:30N 60°11' E 024°58'  

Dump ship's entire track history